sensor_id;sensor_type;location;lat;lon;timestamp;P1;durP1;ratioP1;P2;durP2;ratioP2
11651;SDS011;5882;48.818;9.114;2023-06-22T00:01:58;11.05;;;10.55;;
11651;SDS011;5882;48.818;9.114;2023-06-22T00:04:48;11.32;;;10.82;;
11651;SDS011;5882;48.818;9.114;2023-06-22T00:07:33;8.95;;;8.55;;
11651;SDS011;5882;48.818;9.114;2023-06-22T00:10:18;7.60;;;7.28;;
11651;SDS011;5882;48.818;9.114;2023-06-22T00:13:03;6.45;;;6.15;;
11651;SDS011;5882;48.818;9.114;2023-06-22T00:15:48;6.97;;;6.68;;
11651;SDS011;5882;48.818;9.114;2023-06-22T00:18:33;6.53;;;6.13;;
11651;SDS011;5882;48.818;9.114;2023-06-22T00:21:20;7.35;;;7.05;;
11651;SDS011;5882;48.818;9.114;2023-06-22T00:24:05;10.07;;;9.65;;
11651;SDS011;5882;48.818;9.114;2023-06-22T00:26:51;14.93;;;14.27;;
11651;SDS011;5882;48.818;9.114;2023-06-22T00:29:36;17.13;;;16.42;;
11651;SDS011;5882;48.818;9.114;2023-06-22T00:32:21;19.13;;;18.33;;
11651;SDS011;5882;48.818;9.114;2023-06-22T00:35:06;16.42;;;15.75;;
11651;SDS011;5882;48.818;9.114;2023-06-22T00:37:54;9.50;;;9.10;;
11651;SDS011;5882;48.818;9.114;2023-06-22T00:40:43;6.70;;;6.40;;
11651;SDS011;5882;48.818;9.114;2023-06-22T00:43:28;8.52;;;8.07;;
11651;SDS011;5882;48.818;9.114;2023-06-22T00:46:13;7.90;;;7.47;;
11651;SDS011;5882;48.818;9.114;2023-06-22T00:49:02;6.97;;;6.68;;
11651;SDS011;5882;48.818;9.114;2023-06-22T00:51:49;6.30;;;6.00;;
11651;SDS011;5882;48.818;9.114;2023-06-22T00:54:35;6.18;;;5.78;;
11651;SDS011;5882;48.818;9.114;2023-06-22T00:57:20;6.15;;;5.85;;
11651;SDS011;5882;48.818;9.114;2023-06-22T01:00:06;6.22;;;5.93;;
11651;SDS011;5882;48.818;9.114;2023-06-22T01:02:53;6.57;;;6.20;;
11651;SDS011;5882;48.818;9.114;2023-06-22T01:05:39;6.38;;;6.05;;
11651;SDS011;5882;48.818;9.114;2023-06-22T01:08:27;6.50;;;6.20;;
11651;SDS011;5882;48.818;9.114;2023-06-22T01:11:18;6.53;;;6.22;;
11651;SDS011;5882;48.818;9.114;2023-06-22T01:14:06;8.15;;;7.75;;
11651;SDS011;5882;48.818;9.114;2023-06-22T01:16:51;10.93;;;10.43;;
11651;SDS011;5882;48.818;9.114;2023-06-22T01:19:39;11.27;;;10.77;;
11651;SDS011;5882;48.818;9.114;2023-06-22T01:22:30;11.05;;;10.55;;
11651;SDS011;5882;48.818;9.114;2023-06-22T01:25:18;13.35;;;12.65;;
11651;SDS011;5882;48.818;9.114;2023-06-22T01:28:10;10.32;;;9.80;;
11651;SDS011;5882;48.818;9.114;2023-06-22T01:31:02;8.35;;;7.90;;
11651;SDS011;5882;48.818;9.114;2023-06-22T01:33:50;8.30;;;7.70;;
11651;SDS011;5882;48.818;9.114;2023-06-22T01:36:35;7.75;;;7.22;;
11651;SDS011;5882;48.818;9.114;2023-06-22T01:39:20;7.03;;;6.72;;
11651;SDS011;5882;48.818;9.114;2023-06-22T01:42:06;7.10;;;6.80;;
11651;SDS011;5882;48.818;9.114;2023-06-22T01:44:51;6.57;;;6.28;;
11651;SDS011;5882;48.818;9.114;2023-06-22T01:47:38;7.75;;;7.35;;
11651;SDS011;5882;48.818;9.114;2023-06-22T01:50:23;6.78;;;6.38;;
11651;SDS011;5882;48.818;9.114;2023-06-22T01:53:09;15.88;;;15.20;;
11651;SDS011;5882;48.818;9.114;2023-06-22T01:55:54;19.73;;;18.80;;
11651;SDS011;5882;48.818;9.114;2023-06-22T01:58:41;8.25;;;7.85;;
11651;SDS011;5882;48.818;9.114;2023-06-22T02:01:31;7.88;;;7.47;;
11651;SDS011;5882;48.818;9.114;2023-06-22T02:04:19;6.60;;;6.30;;
11651;SDS011;5882;48.818;9.114;2023-06-22T02:07:05;7.25;;;6.93;;
11651;SDS011;5882;48.818;9.114;2023-06-22T02:09:52;6.95;;;6.57;;
11651;SDS011;5882;48.818;9.114;2023-06-22T02:12:39;6.78;;;6.47;;
11651;SDS011;5882;48.818;9.114;2023-06-22T02:15:26;6.20;;;5.90;;
11651;SDS011;5882;48.818;9.114;2023-06-22T02:18:12;6.13;;;5.82;;
11651;SDS011;5882;48.818;9.114;2023-06-22T02:20:58;6.30;;;6.00;;
11651;SDS011;5882;48.818;9.114;2023-06-22T02:23:44;6.05;;;5.75;;
11651;SDS011;5882;48.818;9.114;2023-06-22T02:26:29;6.32;;;6.03;;
11651;SDS011;5882;48.818;9.114;2023-06-22T02:29:15;6.22;;;5.93;;
11651;SDS011;5882;48.818;9.114;2023-06-22T02:32:01;7.93;;;7.53;;
11651;SDS011;5882;48.818;9.114;2023-06-22T02:34:46;8.63;;;8.23;;
11651;SDS011;5882;48.818;9.114;2023-06-22T02:37:33;11.45;;;10.88;;
11651;SDS011;5882;48.818;9.114;2023-06-22T02:40:22;14.52;;;13.88;;
11651;SDS011;5882;48.818;9.114;2023-06-22T02:43:07;13.55;;;12.98;;
11651;SDS011;5882;48.818;9.114;2023-06-22T02:45:52;10.27;;;9.77;;
11651;SDS011;5882;48.818;9.114;2023-06-22T02:48:37;6.35;;;5.95;;
11651;SDS011;5882;48.818;9.114;2023-06-22T02:51:22;6.72;;;6.43;;
11651;SDS011;5882;48.818;9.114;2023-06-22T02:54:09;6.70;;;6.40;;
11651;SDS011;5882;48.818;9.114;2023-06-22T02:56:54;7.20;;;6.80;;
11651;SDS011;5882;48.818;9.114;2023-06-22T02:59:39;8.02;;;7.53;;
11651;SDS011;5882;48.818;9.114;2023-06-22T03:02:24;9.27;;;8.77;;
11651;SDS011;5882;48.818;9.114;2023-06-22T03:05:10;8.40;;;8.00;;
11651;SDS011;5882;48.818;9.114;2023-06-22T03:08:00;8.93;;;8.52;;
11651;SDS011;5882;48.818;9.114;2023-06-22T03:10:47;9.23;;;8.82;;
11651;SDS011;5882;48.818;9.114;2023-06-22T03:13:34;8.70;;;8.30;;
11651;SDS011;5882;48.818;9.114;2023-06-22T03:16:19;10.48;;;9.98;;
11651;SDS011;5882;48.818;9.114;2023-06-22T03:19:04;10.35;;;9.88;;
11651;SDS011;5882;48.818;9.114;2023-06-22T03:21:49;11.02;;;10.52;;
11651;SDS011;5882;48.818;9.114;2023-06-22T03:24:34;8.77;;;8.38;;
11651;SDS011;5882;48.818;9.114;2023-06-22T03:27:22;8.40;;;8.02;;
11651;SDS011;5882;48.818;9.114;2023-06-22T03:30:08;14.27;;;13.68;;
11651;SDS011;5882;48.818;9.114;2023-06-22T03:32:56;11.20;;;10.70;;
11651;SDS011;5882;48.818;9.114;2023-06-22T03:35:41;9.48;;;8.98;;
11651;SDS011;5882;48.818;9.114;2023-06-22T03:38:26;7.18;;;6.88;;
11651;SDS011;5882;48.818;9.114;2023-06-22T03:41:11;6.78;;;6.38;;
11651;SDS011;5882;48.818;9.114;2023-06-22T03:43:58;6.32;;;6.03;;
11651;SDS011;5882;48.818;9.114;2023-06-22T03:46:43;6.80;;;6.43;;
11651;SDS011;5882;48.818;9.114;2023-06-22T03:49:28;6.80;;;6.22;;
11651;SDS011;5882;48.818;9.114;2023-06-22T03:52:13;6.88;;;6.57;;
11651;SDS011;5882;48.818;9.114;2023-06-22T03:54:58;9.40;;;8.98;;
11651;SDS011;5882;48.818;9.114;2023-06-22T03:57:46;13.38;;;12.80;;
11651;SDS011;5882;48.818;9.114;2023-06-22T04:00:33;14.45;;;13.85;;
11651;SDS011;5882;48.818;9.114;2023-06-22T04:03:18;12.38;;;11.85;;
11651;SDS011;5882;48.818;9.114;2023-06-22T04:06:04;12.38;;;11.82;;
11651;SDS011;5882;48.818;9.114;2023-06-22T04:08:49;10.45;;;9.95;;
11651;SDS011;5882;48.818;9.114;2023-06-22T04:11:37;9.18;;;8.77;;
11651;SDS011;5882;48.818;9.114;2023-06-22T04:14:22;6.55;;;6.25;;
11651;SDS011;5882;48.818;9.114;2023-06-22T04:17:08;6.57;;;6.28;;
11651;SDS011;5882;48.818;9.114;2023-06-22T04:19:53;6.82;;;6.45;;
11651;SDS011;5882;48.818;9.114;2023-06-22T04:22:38;7.97;;;7.55;;
11651;SDS011;5882;48.818;9.114;2023-06-22T04:25:23;12.45;;;11.90;;
11651;SDS011;5882;48.818;9.114;2023-06-22T04:28:08;14.57;;;13.98;;
11651;SDS011;5882;48.818;9.114;2023-06-22T04:30:56;16.55;;;15.85;;
11651;SDS011;5882;48.818;9.114;2023-06-22T04:33:48;18.08;;;17.27;;
11651;SDS011;5882;48.818;9.114;2023-06-22T04:36:35;17.80;;;17.08;;
11651;SDS011;5882;48.818;9.114;2023-06-22T04:39:21;15.25;;;14.55;;
11651;SDS011;5882;48.818;9.114;2023-06-22T04:42:07;14.23;;;13.63;;
11651;SDS011;5882;48.818;9.114;2023-06-22T04:44:52;30.83;;;29.63;;
11651;SDS011;5882;48.818;9.114;2023-06-22T04:47:37;7.53;;;7.13;;
11651;SDS011;5882;48.818;9.114;2023-06-22T04:50:24;14.35;;;13.75;;
11651;SDS011;5882;48.818;9.114;2023-06-22T04:53:10;16.85;;;16.08;;
11651;SDS011;5882;48.818;9.114;2023-06-22T04:55:56;13.02;;;12.40;;
11651;SDS011;5882;48.818;9.114;2023-06-22T04:58:41;16.52;;;15.73;;
11651;SDS011;5882;48.818;9.114;2023-06-22T05:01:26;15.23;;;14.57;;
11651;SDS011;5882;48.818;9.114;2023-06-22T05:04:11;15.20;;;14.55;;
11651;SDS011;5882;48.818;9.114;2023-06-22T05:06:59;13.20;;;12.65;;
11651;SDS011;5882;48.818;9.114;2023-06-22T05:09:44;11.05;;;10.57;;
11651;SDS011;5882;48.818;9.114;2023-06-22T05:12:30;13.70;;;13.15;;
11651;SDS011;5882;48.818;9.114;2023-06-22T05:15:15;8.98;;;8.45;;
11651;SDS011;5882;48.818;9.114;2023-06-22T05:18:02;10.00;;;9.45;;
11651;SDS011;5882;48.818;9.114;2023-06-22T05:20:48;9.75;;;9.30;;
11651;SDS011;5882;48.818;9.114;2023-06-22T05:23:35;6.57;;;6.18;;
11651;SDS011;5882;48.818;9.114;2023-06-22T05:26:20;9.55;;;9.15;;
11651;SDS011;5882;48.818;9.114;2023-06-22T05:29:06;6.43;;;6.13;;
11651;SDS011;5882;48.818;9.114;2023-06-22T05:31:51;13.95;;;13.25;;
11651;SDS011;5882;48.818;9.114;2023-06-22T05:34:36;6.18;;;5.85;;
11651;SDS011;5882;48.818;9.114;2023-06-22T05:37:22;5.93;;;5.63;;
11651;SDS011;5882;48.818;9.114;2023-06-22T05:40:09;9.07;;;8.60;;
11651;SDS011;5882;48.818;9.114;2023-06-22T05:42:55;6.55;;;6.25;;
11651;SDS011;5882;48.818;9.114;2023-06-22T05:45:40;7.45;;;7.15;;
11651;SDS011;5882;48.818;9.114;2023-06-22T05:48:26;10.82;;;10.23;;
11651;SDS011;5882;48.818;9.114;2023-06-22T05:51:12;15.95;;;15.30;;
11651;SDS011;5882;48.818;9.114;2023-06-22T05:53:57;20.65;;;19.80;;
11651;SDS011;5882;48.818;9.114;2023-06-22T05:56:46;23.30;;;22.30;;
11651;SDS011;5882;48.818;9.114;2023-06-22T05:59:31;6.72;;;6.43;;
11651;SDS011;5882;48.818;9.114;2023-06-22T06:02:22;11.98;;;11.48;;
11651;SDS011;5882;48.818;9.114;2023-06-22T06:05:07;10.40;;;9.90;;
11651;SDS011;5882;48.818;9.114;2023-06-22T06:07:52;10.23;;;9.82;;
11651;SDS011;5882;48.818;9.114;2023-06-22T06:10:37;9.43;;;9.02;;
11651;SDS011;5882;48.818;9.114;2023-06-22T06:13:27;11.52;;;11.02;;
11651;SDS011;5882;48.818;9.114;2023-06-22T06:16:13;13.73;;;13.13;;
11651;SDS011;5882;48.818;9.114;2023-06-22T06:18:58;6.38;;;6.07;;
11651;SDS011;5882;48.818;9.114;2023-06-22T06:21:45;14.32;;;13.73;;
11651;SDS011;5882;48.818;9.114;2023-06-22T06:24:34;6.85;;;6.45;;
11651;SDS011;5882;48.818;9.114;2023-06-22T06:27:19;7.38;;;7.07;;
11651;SDS011;5882;48.818;9.114;2023-06-22T06:30:08;7.45;;;7.05;;
11651;SDS011;5882;48.818;9.114;2023-06-22T06:32:53;6.28;;;5.88;;
11651;SDS011;5882;48.818;9.114;2023-06-22T06:35:39;6.22;;;5.93;;
11651;SDS011;5882;48.818;9.114;2023-06-22T06:38:24;7.35;;;7.05;;
11651;SDS011;5882;48.818;9.114;2023-06-22T06:41:10;7.53;;;7.13;;
11651;SDS011;5882;48.818;9.114;2023-06-22T06:43:57;21.88;;;20.90;;
11651;SDS011;5882;48.818;9.114;2023-06-22T06:46:44;27.77;;;26.67;;
11651;SDS011;5882;48.818;9.114;2023-06-22T06:49:29;26.80;;;25.70;;
11651;SDS011;5882;48.818;9.114;2023-06-22T06:52:15;31.77;;;30.58;;
11651;SDS011;5882;48.818;9.114;2023-06-22T06:55:03;20.38;;;19.58;;
11651;SDS011;5882;48.818;9.114;2023-06-22T06:57:53;9.25;;;8.70;;
11651;SDS011;5882;48.818;9.114;2023-06-22T07:00:40;7.68;;;7.20;;
11651;SDS011;5882;48.818;9.114;2023-06-22T07:03:29;6.90;;;6.60;;
11651;SDS011;5882;48.818;9.114;2023-06-22T07:06:16;6.65;;;6.35;;
11651;SDS011;5882;48.818;9.114;2023-06-22T07:09:01;8.40;;;8.02;;
11651;SDS011;5882;48.818;9.114;2023-06-22T07:11:47;6.88;;;6.57;;
11651;SDS011;5882;48.818;9.114;2023-06-22T07:14:32;10.15;;;9.75;;
11651;SDS011;5882;48.818;9.114;2023-06-22T07:17:17;11.35;;;10.85;;
11651;SDS011;5882;48.818;9.114;2023-06-22T07:20:04;10.32;;;9.82;;
11651;SDS011;5882;48.818;9.114;2023-06-22T07:22:52;5.78;;;5.47;;
11651;SDS011;5882;48.818;9.114;2023-06-22T07:25:37;5.90;;;5.60;;
11651;SDS011;5882;48.818;9.114;2023-06-22T07:28:24;6.47;;;6.18;;
11651;SDS011;5882;48.818;9.114;2023-06-22T07:31:09;7.75;;;7.38;;
11651;SDS011;5882;48.818;9.114;2023-06-22T07:33:54;7.47;;;7.07;;
11651;SDS011;5882;48.818;9.114;2023-06-22T07:36:43;8.30;;;7.90;;
11651;SDS011;5882;48.818;9.114;2023-06-22T07:39:28;7.88;;;7.57;;
11651;SDS011;5882;48.818;9.114;2023-06-22T07:42:13;10.15;;;9.75;;
11651;SDS011;5882;48.818;9.114;2023-06-22T07:45:02;9.13;;;8.73;;
11651;SDS011;5882;48.818;9.114;2023-06-22T07:47:47;12.95;;;12.43;;
11651;SDS011;5882;48.818;9.114;2023-06-22T07:50:32;11.95;;;11.45;;
11651;SDS011;5882;48.818;9.114;2023-06-22T07:53:19;5.82;;;5.63;;
11651;SDS011;5882;48.818;9.114;2023-06-22T07:56:07;5.32;;;5.10;;
11651;SDS011;5882;48.818;9.114;2023-06-22T07:58:52;6.00;;;5.70;;
11651;SDS011;5882;48.818;9.114;2023-06-22T08:01:37;6.95;;;6.65;;
11651;SDS011;5882;48.818;9.114;2023-06-22T08:04:22;7.70;;;7.38;;
11651;SDS011;5882;48.818;9.114;2023-06-22T08:07:09;5.80;;;5.50;;
11651;SDS011;5882;48.818;9.114;2023-06-22T08:09:55;5.70;;;5.40;;
11651;SDS011;5882;48.818;9.114;2023-06-22T08:12:41;8.43;;;8.02;;
11651;SDS011;5882;48.818;9.114;2023-06-22T08:15:26;10.23;;;9.82;;
11651;SDS011;5882;48.818;9.114;2023-06-22T08:18:14;11.23;;;10.73;;
11651;SDS011;5882;48.818;9.114;2023-06-22T08:21:00;5.57;;;5.38;;
11651;SDS011;5882;48.818;9.114;2023-06-22T08:23:45;5.32;;;5.13;;
11651;SDS011;5882;48.818;9.114;2023-06-22T08:26:32;10.02;;;9.52;;
11651;SDS011;5882;48.818;9.114;2023-06-22T08:29:19;8.43;;;8.02;;
11651;SDS011;5882;48.818;9.114;2023-06-22T08:32:08;7.72;;;7.32;;
11651;SDS011;5882;48.818;9.114;2023-06-22T08:34:53;8.55;;;8.15;;
11651;SDS011;5882;48.818;9.114;2023-06-22T08:37:39;6.28;;;5.97;;
11651;SDS011;5882;48.818;9.114;2023-06-22T08:40:26;16.00;;;15.38;;
11651;SDS011;5882;48.818;9.114;2023-06-22T08:43:15;14.45;;;13.90;;
11651;SDS011;5882;48.818;9.114;2023-06-22T08:46:00;9.55;;;9.15;;
11651;SDS011;5882;48.818;9.114;2023-06-22T08:48:52;7.20;;;6.90;;
11651;SDS011;5882;48.818;9.114;2023-06-22T08:51:37;7.85;;;7.55;;
11651;SDS011;5882;48.818;9.114;2023-06-22T08:54:23;7.55;;;7.22;;
11651;SDS011;5882;48.818;9.114;2023-06-22T08:57:09;8.65;;;8.25;;
11651;SDS011;5882;48.818;9.114;2023-06-22T08:59:56;9.38;;;8.88;;
11651;SDS011;5882;48.818;9.114;2023-06-22T09:02:42;6.63;;;6.32;;
11651;SDS011;5882;48.818;9.114;2023-06-22T09:05:41;9.45;;;9.05;;
11651;SDS011;5882;48.818;9.114;2023-06-22T09:08:26;15.65;;;15.02;;
11651;SDS011;5882;48.818;9.114;2023-06-22T09:11:17;37.30;;;35.85;;
11651;SDS011;5882;48.818;9.114;2023-06-22T09:14:02;21.92;;;21.02;;
11651;SDS011;5882;48.818;9.114;2023-06-22T09:16:49;9.98;;;9.57;;
11651;SDS011;5882;48.818;9.114;2023-06-22T09:19:37;5.70;;;5.40;;
11651;SDS011;5882;48.818;9.114;2023-06-22T09:22:24;6.15;;;5.85;;
11651;SDS011;5882;48.818;9.114;2023-06-22T09:25:13;7.00;;;6.60;;
11651;SDS011;5882;48.818;9.114;2023-06-22T09:27:58;8.40;;;8.00;;
11651;SDS011;5882;48.818;9.114;2023-06-22T09:30:46;8.93;;;8.52;;
11651;SDS011;5882;48.818;9.114;2023-06-22T09:33:33;9.48;;;8.98;;
11651;SDS011;5882;48.818;9.114;2023-06-22T09:36:18;7.60;;;7.30;;
11651;SDS011;5882;48.818;9.114;2023-06-22T09:39:12;6.03;;;5.72;;
11651;SDS011;5882;48.818;9.114;2023-06-22T09:41:58;5.90;;;5.60;;
11651;SDS011;5882;48.818;9.114;2023-06-22T09:44:43;5.72;;;5.53;;
11651;SDS011;5882;48.818;9.114;2023-06-22T09:47:36;6.28;;;5.97;;
11651;SDS011;5882;48.818;9.114;2023-06-22T09:50:23;6.60;;;6.30;;
11651;SDS011;5882;48.818;9.114;2023-06-22T09:53:08;6.68;;;6.32;;
11651;SDS011;5882;48.818;9.114;2023-06-22T09:55:59;6.90;;;6.50;;
11651;SDS011;5882;48.818;9.114;2023-06-22T09:58:46;8.43;;;8.00;;
11651;SDS011;5882;48.818;9.114;2023-06-22T10:01:31;8.60;;;8.10;;
11651;SDS011;5882;48.818;9.114;2023-06-22T10:04:21;8.65;;;8.15;;
11651;SDS011;5882;48.818;9.114;2023-06-22T10:07:07;11.38;;;10.88;;
11651;SDS011;5882;48.818;9.114;2023-06-22T10:09:52;22.10;;;21.20;;
11651;SDS011;5882;48.818;9.114;2023-06-22T10:12:41;38.40;;;36.90;;
11651;SDS011;5882;48.818;9.114;2023-06-22T10:15:27;36.67;;;35.25;;
11651;SDS011;5882;48.818;9.114;2023-06-22T10:18:12;20.30;;;19.50;;
11651;SDS011;5882;48.818;9.114;2023-06-22T10:20:57;50.20;;;48.28;;
11651;SDS011;5882;48.818;9.114;2023-06-22T10:23:43;36.70;;;35.30;;
11651;SDS011;5882;48.818;9.114;2023-06-22T10:26:28;29.13;;;27.92;;
11651;SDS011;5882;48.818;9.114;2023-06-22T10:29:13;26.52;;;25.42;;
11651;SDS011;5882;48.818;9.114;2023-06-22T10:32:02;19.00;;;18.25;;
11651;SDS011;5882;48.818;9.114;2023-06-22T10:34:50;12.50;;;12.00;;
11651;SDS011;5882;48.818;9.114;2023-06-22T10:37:35;11.65;;;10.98;;
11651;SDS011;5882;48.818;9.114;2023-06-22T10:40:21;8.07;;;7.72;;
11651;SDS011;5882;48.818;9.114;2023-06-22T10:43:06;9.43;;;9.02;;
11651;SDS011;5882;48.818;9.114;2023-06-22T10:45:57;12.48;;;11.98;;
11651;SDS011;5882;48.818;9.114;2023-06-22T10:48:43;14.13;;;13.57;;
11651;SDS011;5882;48.818;9.114;2023-06-22T10:51:28;12.27;;;11.68;;
11651;SDS011;5882;48.818;9.114;2023-06-22T10:54:15;9.65;;;9.15;;
11651;SDS011;5882;48.818;9.114;2023-06-22T10:57:04;7.25;;;6.90;;
11651;SDS011;5882;48.818;9.114;2023-06-22T10:59:49;6.05;;;5.75;;
11651;SDS011;5882;48.818;9.114;2023-06-22T11:02:34;6.05;;;5.75;;
11651;SDS011;5882;48.818;9.114;2023-06-22T11:05:19;6.45;;;6.15;;
11651;SDS011;5882;48.818;9.114;2023-06-22T11:08:04;9.63;;;9.23;;
11651;SDS011;5882;48.818;9.114;2023-06-22T11:10:50;7.50;;;7.10;;
11651;SDS011;5882;48.818;9.114;2023-06-22T11:13:37;6.88;;;6.57;;
11651;SDS011;5882;48.818;9.114;2023-06-22T11:16:22;7.43;;;7.13;;
11651;SDS011;5882;48.818;9.114;2023-06-22T11:19:09;7.20;;;6.80;;
11651;SDS011;5882;48.818;9.114;2023-06-22T11:21:54;6.72;;;6.43;;
11651;SDS011;5882;48.818;9.114;2023-06-22T11:24:39;6.78;;;6.47;;
11651;SDS011;5882;48.818;9.114;2023-06-22T11:27:25;6.63;;;6.32;;
11651;SDS011;5882;48.818;9.114;2023-06-22T11:30:15;9.25;;;8.85;;
11651;SDS011;5882;48.818;9.114;2023-06-22T11:33:00;9.40;;;9.00;;
11651;SDS011;5882;48.818;9.114;2023-06-22T11:35:45;10.60;;;10.10;;
11651;SDS011;5882;48.818;9.114;2023-06-22T11:38:30;10.00;;;9.60;;
11651;SDS011;5882;48.818;9.114;2023-06-22T11:41:16;11.23;;;10.73;;
11651;SDS011;5882;48.818;9.114;2023-06-22T11:44:01;9.93;;;9.52;;
11651;SDS011;5882;48.818;9.114;2023-06-22T11:46:49;8.52;;;8.13;;
11651;SDS011;5882;48.818;9.114;2023-06-22T11:49:36;9.65;;;9.23;;
11651;SDS011;5882;48.818;9.114;2023-06-22T11:52:25;12.98;;;12.38;;
11651;SDS011;5882;48.818;9.114;2023-06-22T11:55:10;11.40;;;10.75;;
11651;SDS011;5882;48.818;9.114;2023-06-22T11:57:57;13.07;;;12.57;;
11651;SDS011;5882;48.818;9.114;2023-06-22T12:00:48;11.70;;;11.20;;
11651;SDS011;5882;48.818;9.114;2023-06-22T12:03:35;11.98;;;11.48;;
11651;SDS011;5882;48.818;9.114;2023-06-22T12:06:20;14.43;;;13.82;;
11651;SDS011;5882;48.818;9.114;2023-06-22T12:09:05;9.07;;;8.68;;
11651;SDS011;5882;48.818;9.114;2023-06-22T12:11:50;7.40;;;7.07;;
11651;SDS011;5882;48.818;9.114;2023-06-22T12:14:35;8.60;;;8.10;;
11651;SDS011;5882;48.818;9.114;2023-06-22T12:17:20;9.55;;;9.05;;
11651;SDS011;5882;48.818;9.114;2023-06-22T12:20:07;11.25;;;10.75;;
11651;SDS011;5882;48.818;9.114;2023-06-22T12:22:53;10.23;;;9.82;;
11651;SDS011;5882;48.818;9.114;2023-06-22T12:25:40;8.75;;;8.35;;
11651;SDS011;5882;48.818;9.114;2023-06-22T12:28:25;8.18;;;7.78;;
11651;SDS011;5882;48.818;9.114;2023-06-22T12:31:10;8.40;;;8.10;;
11651;SDS011;5882;48.818;9.114;2023-06-22T12:33:55;10.18;;;9.65;;
11651;SDS011;5882;48.818;9.114;2023-06-22T12:36:43;9.77;;;9.38;;
11651;SDS011;5882;48.818;9.114;2023-06-22T12:39:28;11.00;;;10.50;;
11651;SDS011;5882;48.818;9.114;2023-06-22T12:42:13;10.50;;;10.10;;
11651;SDS011;5882;48.818;9.114;2023-06-22T12:45:01;8.15;;;7.72;;
11651;SDS011;5882;48.818;9.114;2023-06-22T12:47:49;10.30;;;9.90;;
11651;SDS011;5882;48.818;9.114;2023-06-22T12:50:34;6.40;;;6.10;;
11651;SDS011;5882;48.818;9.114;2023-06-22T12:53:21;7.22;;;6.93;;
11651;SDS011;5882;48.818;9.114;2023-06-22T12:56:11;10.15;;;9.73;;
11651;SDS011;5882;48.818;9.114;2023-06-22T12:58:56;12.88;;;12.27;;
11651;SDS011;5882;48.818;9.114;2023-06-22T13:01:41;7.70;;;7.35;;
11651;SDS011;5882;48.818;9.114;2023-06-22T13:04:27;7.78;;;7.47;;
11651;SDS011;5882;48.818;9.114;2023-06-22T13:07:15;8.77;;;8.27;;
11651;SDS011;5882;48.818;9.114;2023-06-22T13:10:01;13.75;;;13.15;;
11651;SDS011;5882;48.818;9.114;2023-06-22T13:12:47;11.10;;;10.68;;
11651;SDS011;5882;48.818;9.114;2023-06-22T13:15:32;11.05;;;10.45;;
11651;SDS011;5882;48.818;9.114;2023-06-22T13:18:20;7.63;;;7.22;;
11651;SDS011;5882;48.818;9.114;2023-06-22T13:21:05;7.00;;;6.70;;
11651;SDS011;5882;48.818;9.114;2023-06-22T13:23:51;7.47;;;7.07;;
11651;SDS011;5882;48.818;9.114;2023-06-22T13:27:02;11.02;;;10.52;;
11651;SDS011;5882;48.818;9.114;2023-06-22T13:29:48;8.50;;;8.10;;
11651;SDS011;5882;48.818;9.114;2023-06-22T13:32:33;7.22;;;6.93;;
11651;SDS011;5882;48.818;9.114;2023-06-22T13:35:18;8.23;;;7.82;;
11651;SDS011;5882;48.818;9.114;2023-06-22T13:38:03;9.10;;;8.70;;
11651;SDS011;5882;48.818;9.114;2023-06-22T13:40:48;7.82;;;7.13;;
11651;SDS011;5882;48.818;9.114;2023-06-22T13:43:35;9.38;;;8.98;;
11651;SDS011;5882;48.818;9.114;2023-06-22T13:46:20;9.05;;;8.65;;
11651;SDS011;5882;48.818;9.114;2023-06-22T13:49:06;7.90;;;7.50;;
11651;SDS011;5882;48.818;9.114;2023-06-22T13:51:51;6.32;;;6.03;;
11651;SDS011;5882;48.818;9.114;2023-06-22T13:54:35;8.07;;;7.70;;
11651;SDS011;5882;48.818;9.114;2023-06-22T13:57:21;9.75;;;9.35;;
11651;SDS011;5882;48.818;9.114;2023-06-22T14:00:07;8.32;;;7.93;;
11651;SDS011;5882;48.818;9.114;2023-06-22T14:02:53;8.60;;;8.20;;
11651;SDS011;5882;48.818;9.114;2023-06-22T14:05:38;10.20;;;9.80;;
11651;SDS011;5882;48.818;9.114;2023-06-22T14:08:26;9.82;;;9.35;;
11651;SDS011;5882;48.818;9.114;2023-06-22T14:11:11;12.45;;;11.95;;
11651;SDS011;5882;48.818;9.114;2023-06-22T14:13:56;11.40;;;10.88;;
11651;SDS011;5882;48.818;9.114;2023-06-22T14:16:42;10.73;;;10.23;;
11651;SDS011;5882;48.818;9.114;2023-06-22T14:19:27;12.10;;;11.57;;
11651;SDS011;5882;48.818;9.114;2023-06-22T14:22:12;12.40;;;11.90;;
11651;SDS011;5882;48.818;9.114;2023-06-22T14:24:57;10.23;;;9.75;;
11651;SDS011;5882;48.818;9.114;2023-06-22T14:27:42;8.75;;;8.35;;
11651;SDS011;5882;48.818;9.114;2023-06-22T14:30:28;7.07;;;6.68;;
11651;SDS011;5882;48.818;9.114;2023-06-22T14:33:15;6.90;;;6.60;;
11651;SDS011;5882;48.818;9.114;2023-06-22T14:36:00;8.60;;;8.20;;
11651;SDS011;5882;48.818;9.114;2023-06-22T14:38:45;7.05;;;6.75;;
11651;SDS011;5882;48.818;9.114;2023-06-22T14:41:30;7.45;;;7.10;;
11651;SDS011;5882;48.818;9.114;2023-06-22T14:44:15;7.53;;;7.13;;
11651;SDS011;5882;48.818;9.114;2023-06-22T14:47:01;6.05;;;5.65;;
11651;SDS011;5882;48.818;9.114;2023-06-22T14:49:47;5.90;;;5.50;;
11651;SDS011;5882;48.818;9.114;2023-06-22T14:52:32;5.53;;;5.22;;
11651;SDS011;5882;48.818;9.114;2023-06-22T14:55:17;5.03;;;4.82;;
11651;SDS011;5882;48.818;9.114;2023-06-22T14:58:04;5.15;;;4.95;;
11651;SDS011;5882;48.818;9.114;2023-06-22T15:00:50;7.93;;;7.57;;
11651;SDS011;5882;48.818;9.114;2023-06-22T15:03:35;5.47;;;5.20;;
11651;SDS011;5882;48.818;9.114;2023-06-22T15:06:22;5.38;;;5.07;;
11651;SDS011;5882;48.818;9.114;2023-06-22T15:09:07;7.88;;;7.57;;
11651;SDS011;5882;48.818;9.114;2023-06-22T15:11:55;6.80;;;6.50;;
11651;SDS011;5882;48.818;9.114;2023-06-22T15:14:41;8.48;;;7.93;;
11651;SDS011;5882;48.818;9.114;2023-06-22T15:17:26;7.43;;;7.03;;
11651;SDS011;5882;48.818;9.114;2023-06-22T15:20:13;11.77;;;11.38;;
11651;SDS011;5882;48.818;9.114;2023-06-22T15:23:00;13.00;;;12.48;;
11651;SDS011;5882;48.818;9.114;2023-06-22T15:25:48;6.22;;;6.03;;
11651;SDS011;5882;48.818;9.114;2023-06-22T15:28:33;7.05;;;6.75;;
11651;SDS011;5882;48.818;9.114;2023-06-22T15:31:22;14.60;;;14.00;;
11651;SDS011;5882;48.818;9.114;2023-06-22T15:34:08;18.27;;;17.48;;
11651;SDS011;5882;48.818;9.114;2023-06-22T15:36:57;19.63;;;18.75;;
11651;SDS011;5882;48.818;9.114;2023-06-22T15:39:46;15.60;;;15.00;;
11651;SDS011;5882;48.818;9.114;2023-06-22T15:42:32;13.48;;;12.95;;
11651;SDS011;5882;48.818;9.114;2023-06-22T15:45:18;15.45;;;14.77;;
11651;SDS011;5882;48.818;9.114;2023-06-22T15:48:04;14.10;;;13.55;;
11651;SDS011;5882;48.818;9.114;2023-06-22T15:50:50;11.48;;;10.98;;
11651;SDS011;5882;48.818;9.114;2023-06-22T15:53:36;9.38;;;9.05;;
11651;SDS011;5882;48.818;9.114;2023-06-22T15:56:23;8.57;;;8.18;;
11651;SDS011;5882;48.818;9.114;2023-06-22T16:11:06;10.80;;;10.30;;
11651;SDS011;5882;48.818;9.114;2023-06-22T16:13:53;21.23;;;20.42;;
11651;SDS011;5882;48.818;9.114;2023-06-22T16:16:38;13.82;;;13.23;;
11651;SDS011;5882;48.818;9.114;2023-06-22T16:19:23;9.57;;;9.18;;
11651;SDS011;5882;48.818;9.114;2023-06-22T16:22:08;6.20;;;5.90;;
11651;SDS011;5882;48.818;9.114;2023-06-22T16:24:56;7.40;;;7.00;;
11651;SDS011;5882;48.818;9.114;2023-06-22T16:27:44;7.63;;;7.32;;
11651;SDS011;5882;48.818;9.114;2023-06-22T16:30:30;5.05;;;4.82;;
11651;SDS011;5882;48.818;9.114;2023-06-22T16:33:16;7.10;;;6.80;;
11651;SDS011;5882;48.818;9.114;2023-06-22T16:36:01;7.72;;;7.38;;
11651;SDS011;5882;48.818;9.114;2023-06-22T16:38:46;11.27;;;10.73;;
11651;SDS011;5882;48.818;9.114;2023-06-22T16:41:35;8.38;;;8.02;;
11651;SDS011;5882;48.818;9.114;2023-06-22T16:44:22;5.68;;;5.47;;
11651;SDS011;5882;48.818;9.114;2023-06-22T16:47:08;5.25;;;4.95;;
11651;SDS011;5882;48.818;9.114;2023-06-22T16:49:53;5.70;;;5.30;;
11651;SDS011;5882;48.818;9.114;2023-06-22T16:52:39;5.20;;;5.00;;
11651;SDS011;5882;48.818;9.114;2023-06-22T16:55:25;5.30;;;5.10;;
11651;SDS011;5882;48.818;9.114;2023-06-22T16:58:14;6.20;;;5.90;;
11651;SDS011;5882;48.818;9.114;2023-06-22T17:01:02;8.57;;;8.18;;